createdAt,value
2022-12-12T00:02:18.587Z,95058.34
2022-12-12T00:04:45.165Z,95059.31
2022-12-12T00:07:11.670Z,95059.19
2022-12-12T00:09:38.183Z,95059.53
2022-12-12T00:12:04.717Z,95064.91
2022-12-12T00:14:31.204Z,95059.19
2022-12-12T00:16:57.666Z,95060.94
2022-12-12T00:19:24.178Z,95069.25
2022-12-12T00:21:50.710Z,95068.53
2022-12-12T00:24:17.590Z,95069.25
2022-12-12T00:26:44.126Z,95063.56
2022-12-12T00:29:11.312Z,95068.66
2022-12-12T00:31:38.013Z,95065.91
2022-12-12T00:34:04.641Z,95068.03
2022-12-12T00:36:31.458Z,95074.22
2022-12-12T00:38:59.251Z,95077.41
2022-12-12T00:41:25.820Z,95084.41
2022-12-12T00:43:52.472Z,95081.06
2022-12-12T00:46:20.899Z,95077.84
2022-12-12T00:48:47.550Z,95083.31
2022-12-12T00:51:16.759Z,95078.66
2022-12-12T00:53:43.317Z,95090.13
2022-12-12T00:56:09.881Z,95085.75
2022-12-12T00:58:36.405Z,95082.94
2022-12-12T01:01:07.880Z,95079.13
2022-12-12T01:03:34.510Z,95080.84
2022-12-12T01:06:00.999Z,95068.88
2022-12-12T01:08:27.958Z,95074.81
2022-12-12T01:10:54.708Z,95071.38
2022-12-12T01:13:21.274Z,95076.38
2022-12-12T01:15:47.896Z,95076.81
2022-12-12T01:18:14.429Z,95078.22
2022-12-12T01:20:41.133Z,95079.47
2022-12-12T01:23:07.824Z,95079.81
2022-12-12T01:25:34.388Z,95085.38
2022-12-12T01:28:00.898Z,95085.41
2022-12-12T01:30:27.942Z,95099.47
2022-12-12T01:32:55.199Z,95102.09
2022-12-12T01:35:22.375Z,95098.78
2022-12-12T01:37:49.510Z,95105.47
2022-12-12T01:40:18.064Z,95107.25
2022-12-12T01:42:44.734Z,95108.41
2022-12-12T01:45:29.931Z,95106.97
2022-12-12T01:47:59.270Z,95111.44
2022-12-12T01:50:30.052Z,95109.56
2022-12-12T01:52:56.556Z,95113.97
2022-12-12T01:55:23.319Z,95108.75
2022-12-12T01:57:52.107Z,95113.88
2022-12-12T02:00:18.944Z,95105.13
2022-12-12T02:02:46.501Z,95110.97
2022-12-12T02:05:18.739Z,95107.31
2022-12-12T02:07:45.274Z,95121.94
2022-12-12T02:10:11.809Z,95118.59
2022-12-12T02:12:38.356Z,95121.06
2022-12-12T02:15:05.038Z,95112.00
2022-12-12T02:17:49.843Z,95123.88
2022-12-12T02:20:31.455Z,95123.16
2022-12-12T02:22:58.140Z,95124.09
2022-12-12T02:25:43.066Z,95129.53
2022-12-12T02:28:29.774Z,95132.84
2022-12-12T02:31:19.031Z,95123.88
2022-12-12T02:33:45.535Z,95130.06
2022-12-12T02:36:12.073Z,95131.63
2022-12-12T02:38:58.867Z,95141.91
2022-12-12T02:41:36.670Z,95142.44
2022-12-12T02:44:11.318Z,95138.16
2022-12-12T02:46:49.047Z,95141.47
2022-12-12T02:49:21.650Z,95136.28
2022-12-12T02:51:49.407Z,95141.81
2022-12-12T02:54:18.954Z,95136.72
2022-12-12T02:56:45.557Z,95140.56
2022-12-12T02:59:14.189Z,95145.84
2022-12-12T03:01:57.484Z,95142.75
2022-12-12T03:04:53.204Z,95147.09
2022-12-12T03:07:38.393Z,95142.00
2022-12-12T03:10:12.041Z,95142.50
2022-12-12T03:13:00.895Z,95149.06
2022-12-12T03:15:35.441Z,95147.22
2022-12-12T03:18:01.897Z,95152.81
2022-12-12T03:20:43.462Z,95156.16
2022-12-12T03:23:14.283Z,95154.38
2022-12-12T03:25:50.034Z,95157.78
2022-12-12T03:28:39.556Z,95164.88
2022-12-12T03:31:09.632Z,95169.03
2022-12-12T03:33:39.936Z,95162.81
2022-12-12T03:36:09.834Z,95157.78
2022-12-12T03:38:41.800Z,95159.47
2022-12-12T03:41:10.957Z,95168.94
2022-12-12T03:43:40.431Z,95167.16
2022-12-12T03:46:10.105Z,95175.88
2022-12-12T03:48:38.823Z,95173.28
2022-12-12T03:51:07.864Z,95178.41
2022-12-12T03:53:40.893Z,95183.69
2022-12-12T03:56:14.304Z,95183.78
2022-12-12T03:59:07.093Z,95190.00
2022-12-12T04:01:39.837Z,95191.03
2022-12-12T04:04:16.550Z,95185.84
2022-12-12T04:06:46.509Z,95185.13
2022-12-12T04:09:34.050Z,95189.59
2022-12-12T04:12:22.240Z,95186.66
2022-12-12T04:14:56.567Z,95194.06
2022-12-12T04:17:27.026Z,95189.38
2022-12-12T04:20:20.747Z,95182.59
2022-12-12T04:23:11.016Z,95188.13
2022-12-12T04:26:04.446Z,95197.78
2022-12-12T04:28:32.558Z,95192.69
2022-12-12T04:31:01.876Z,95192.09
2022-12-12T04:33:30.154Z,95190.41
2022-12-12T04:35:58.217Z,95195.59
2022-12-12T04:38:25.660Z,95201.53
2022-12-12T04:40:55.317Z,95210.28
2022-12-12T04:43:25.836Z,95211.81
2022-12-12T04:45:55.575Z,95207.66
2022-12-12T04:48:34.451Z,95213.78
2022-12-12T04:51:05.251Z,95209.97
2022-12-12T04:53:37.591Z,95212.56
2022-12-12T04:56:11.869Z,95218.69
2022-12-12T04:58:39.477Z,95206.81
2022-12-12T05:01:15.100Z,95204.53
2022-12-12T05:03:44.949Z,95204.31
2022-12-12T05:06:13.742Z,95204.31
2022-12-12T05:08:43.011Z,95210.53
2022-12-12T05:11:10.001Z,95202.97
2022-12-12T05:13:37.556Z,95205.69
2022-12-12T05:16:06.991Z,95203.22
2022-12-12T05:18:33.456Z,95213.38
2022-12-12T05:20:59.951Z,95209.88
2022-12-12T05:23:30.206Z,95221.06
2022-12-12T05:26:06.454Z,95206.53
2022-12-12T05:28:32.932Z,95221.13
2022-12-12T05:30:59.473Z,95224.00
2022-12-12T05:33:25.990Z,95221.41
2022-12-12T05:35:52.506Z,95229.50
2022-12-12T05:38:19.040Z,95229.06
2022-12-12T05:40:45.513Z,95237.97
2022-12-12T05:43:12.030Z,95236.28
2022-12-12T05:45:38.593Z,95236.66
2022-12-12T05:48:05.185Z,95232.31
2022-12-12T05:50:31.700Z,95229.53
2022-12-12T05:52:58.179Z,95231.84
2022-12-12T05:55:24.647Z,95231.75
2022-12-12T05:57:51.132Z,95235.00
2022-12-12T06:00:17.747Z,95230.66
2022-12-12T06:02:44.336Z,95236.69
2022-12-12T06:05:11.193Z,95234.91
2022-12-12T06:07:37.993Z,95234.91
2022-12-12T06:10:04.664Z,95254.47
2022-12-12T06:12:31.171Z,95244.56
2022-12-12T06:14:57.764Z,95247.97
2022-12-12T06:17:27.160Z,95251.78
2022-12-12T06:19:57.955Z,95257.06
2022-12-12T06:22:24.521Z,95252.78
2022-12-12T06:24:50.980Z,95256.97
2022-12-12T06:27:17.507Z,95248.16
2022-12-12T06:29:44.454Z,95257.88
2022-12-12T06:32:10.974Z,95249.09
2022-12-12T06:34:38.448Z,95249.63
2022-12-12T06:37:10.657Z,95261.88
2022-12-12T06:39:40.833Z,95259.09
2022-12-12T06:42:07.426Z,95271.44
2022-12-12T06:44:33.896Z,95276.63
2022-12-12T06:47:00.576Z,95268.75
2022-12-12T06:49:27.042Z,95275.41
2022-12-12T06:51:53.558Z,95273.19
2022-12-12T06:54:20.088Z,95273.75
2022-12-12T06:56:48.766Z,95275.69
2022-12-12T06:59:16.514Z,95276.50
2022-12-12T07:01:43.358Z,95276.50
2022-12-12T07:04:11.515Z,95286.41
2022-12-12T07:06:37.998Z,95276.59
2022-12-12T07:09:05.109Z,95280.13
2022-12-12T07:11:32.020Z,95276.16
2022-12-12T07:13:59.722Z,95276.34
2022-12-12T07:16:26.296Z,95276.25
2022-12-12T07:18:52.821Z,95275.78
2022-12-12T07:21:19.987Z,95275.19
2022-12-12T07:23:46.817Z,95265.41
2022-12-12T07:26:14.879Z,95260.78
2022-12-12T07:28:41.778Z,95271.09
2022-12-12T07:31:09.585Z,95270.72
2022-12-12T07:33:43.684Z,95268.06
2022-12-12T07:36:11.257Z,95283.72
2022-12-12T07:38:37.854Z,95276.22
2022-12-12T07:41:05.411Z,95282.69
2022-12-12T07:43:33.141Z,95285.06
2022-12-12T07:46:00.186Z,95284.22
2022-12-12T07:48:27.908Z,95282.59
2022-12-12T07:50:54.412Z,95288.06
2022-12-12T07:53:20.905Z,95294.97
2022-12-12T07:55:47.405Z,95289.19
2022-12-12T07:58:13.844Z,95289.25
2022-12-12T08:00:40.362Z,95292.06
2022-12-12T08:03:06.896Z,95294.66
2022-12-12T08:05:33.452Z,95297.28
2022-12-12T08:08:00.038Z,95303.34
2022-12-12T08:10:26.764Z,95311.50
2022-12-12T08:12:53.319Z,95307.03
2022-12-12T08:15:20.643Z,95319.03
2022-12-12T08:17:47.128Z,95312.06
2022-12-12T08:20:13.706Z,95319.84
2022-12-12T08:22:40.193Z,95322.06
2022-12-12T08:25:07.083Z,95320.16
2022-12-12T08:27:33.702Z,95329.34
2022-12-12T08:30:00.198Z,95322.03
2022-12-12T08:32:26.677Z,95328.31
2022-12-12T08:34:58.984Z,95328.19
2022-12-12T08:37:25.646Z,95327.88
2022-12-12T08:39:55.587Z,95333.47
2022-12-12T08:42:22.414Z,95336.63
2022-12-12T08:44:49.370Z,95336.28
2022-12-12T08:47:15.973Z,95342.34
2022-12-12T08:49:42.449Z,95336.63
2022-12-12T08:52:10.101Z,95349.09
2022-12-12T08:54:37.194Z,95344.72
2022-12-12T08:57:04.093Z,95345.88
2022-12-12T08:59:30.608Z,95353.38
2022-12-12T09:01:57.199Z,95352.44
2022-12-12T09:04:23.876Z,95351.41
2022-12-12T09:06:50.423Z,95349.34
2022-12-12T09:09:16.951Z,95349.13
2022-12-12T09:11:43.709Z,95350.19
2022-12-12T09:14:10.236Z,95350.78
2022-12-12T09:16:36.824Z,95358.38
2022-12-12T09:19:03.415Z,95356.38
2022-12-12T09:21:29.901Z,95340.56
2022-12-12T09:23:56.490Z,95341.56
2022-12-12T09:26:23.081Z,95334.03
2022-12-12T09:28:49.641Z,95339.28
2022-12-12T09:31:16.368Z,95333.09
2022-12-12T09:33:43.372Z,95334.56
2022-12-12T09:36:10.854Z,95328.72
2022-12-12T09:38:37.892Z,95341.78
2022-12-12T09:41:12.196Z,95336.44
2022-12-12T09:43:44.597Z,95325.84
2022-12-12T09:46:31.380Z,95320.41
2022-12-12T09:49:16.806Z,95328.94
2022-12-12T09:51:46.077Z,95338.09
2022-12-12T09:54:14.421Z,95337.94
2022-12-12T09:56:40.904Z,95332.84
2022-12-12T09:59:13.672Z,95331.81
2022-12-12T10:01:49.214Z,95338.81
2022-12-12T10:04:22.524Z,95336.81
2022-12-12T10:07:01.390Z,95340.13
2022-12-12T10:09:35.632Z,95341.34
2022-12-12T10:12:07.919Z,95343.00
2022-12-12T10:14:38.692Z,95341.47
2022-12-12T10:17:11.961Z,95343.72
2022-12-12T10:19:58.785Z,95343.00
2022-12-12T10:22:28.279Z,95338.88
2022-12-12T10:24:58.205Z,95346.59
2022-12-12T10:27:25.237Z,95341.00
2022-12-12T10:29:53.309Z,95343.94
2022-12-12T10:32:22.818Z,95339.31
2022-12-12T10:34:52.180Z,95346.91
2022-12-12T10:37:24.674Z,95345.97
2022-12-12T10:39:56.895Z,95342.75
2022-12-12T10:42:33.893Z,95338.25
2022-12-12T10:45:00.357Z,95349.88
2022-12-12T10:47:26.905Z,95337.88
2022-12-12T10:50:01.551Z,95343.94
2022-12-12T10:52:28.017Z,95340.88
2022-12-12T10:54:58.893Z,95346.53
2022-12-12T10:57:28.752Z,95339.88
2022-12-12T10:59:56.647Z,95345.59
2022-12-12T11:02:28.660Z,95344.66
2022-12-12T11:04:59.843Z,95348.22
2022-12-12T11:07:26.538Z,95345.72
2022-12-12T11:09:56.597Z,95343.31
2022-12-12T11:12:33.844Z,95346.06
2022-12-12T11:15:03.313Z,95341.75
2022-12-12T11:17:31.030Z,95348.53
2022-12-12T11:19:58.947Z,95347.84
2022-12-12T11:22:26.352Z,95352.94
2022-12-12T11:24:53.417Z,95351.41
2022-12-12T11:27:22.093Z,95351.53
2022-12-12T11:29:50.236Z,95352.25
2022-12-12T11:32:22.889Z,95349.41
2022-12-12T11:34:57.521Z,95342.06
2022-12-12T11:37:26.871Z,95338.03
2022-12-12T11:39:54.576Z,95337.66
2022-12-12T11:42:25.754Z,95338.84
2022-12-12T11:45:01.043Z,95334.00
2022-12-12T11:47:29.112Z,95329.25
2022-12-12T11:50:00.206Z,95331.59
2022-12-12T11:52:30.589Z,95329.72
2022-12-12T11:54:57.529Z,95324.47
2022-12-12T11:57:30.115Z,95332.78
2022-12-12T11:59:59.428Z,95328.03
2022-12-12T12:02:44.585Z,95331.81
2022-12-12T12:05:14.607Z,95331.59
2022-12-12T12:07:59.880Z,95331.25
2022-12-12T12:10:38.345Z,95330.31
2022-12-12T12:13:13.554Z,95340.53
2022-12-12T12:15:40.026Z,95334.69
2022-12-12T12:18:17.944Z,95325.44
2022-12-12T12:21:04.716Z,95331.97
2022-12-12T12:23:42.573Z,95335.16
2022-12-12T12:26:19.545Z,95333.84
2022-12-12T12:29:04.688Z,95334.09
2022-12-12T12:31:40.734Z,95332.56
2022-12-12T12:34:07.212Z,95341.22
2022-12-12T12:36:45.929Z,95337.06
2022-12-12T12:39:26.486Z,95340.16
2022-12-12T12:42:11.597Z,95337.41
2022-12-12T12:44:38.221Z,95333.00
2022-12-12T12:47:04.781Z,95334.94
2022-12-12T12:49:38.261Z,95340.16
2022-12-12T12:52:31.149Z,95334.56
2022-12-12T12:54:58.617Z,95334.31
2022-12-12T12:57:25.114Z,95339.19
2022-12-12T12:59:52.843Z,95351.09
2022-12-12T13:02:27.049Z,95355.38
2022-12-12T13:05:00.176Z,95358.47
2022-12-12T13:07:40.993Z,95353.59
2022-12-12T13:10:20.314Z,95357.63
2022-12-12T13:12:50.052Z,95355.97
2022-12-12T13:15:25.510Z,95356.47
2022-12-12T13:17:57.569Z,95352.31
2022-12-12T13:20:27.958Z,95363.44
2022-12-12T13:23:00.618Z,95371.19
2022-12-12T13:25:38.713Z,95372.00
2022-12-12T13:28:13.713Z,95378.53
2022-12-12T13:30:47.656Z,95374.38
2022-12-12T13:33:26.131Z,95376.75
2022-12-12T13:35:55.009Z,95383.91
2022-12-12T13:38:30.003Z,95386.38
2022-12-12T13:41:01.219Z,95388.41
2022-12-12T13:43:30.559Z,95387.44
2022-12-12T13:45:57.118Z,95393.00
2022-12-12T13:48:29.659Z,95396.47
2022-12-12T13:51:14.754Z,95400.03
2022-12-12T13:53:41.295Z,95402.19
2022-12-12T13:56:26.556Z,95404.69
2022-12-12T13:58:53.112Z,95403.13
2022-12-12T14:01:28.877Z,95413.34
2022-12-12T14:03:55.545Z,95416.91
2022-12-12T14:06:22.069Z,95416.19
2022-12-12T14:08:50.073Z,95418.34
2022-12-12T14:11:27.670Z,95423.69
2022-12-12T14:14:07.901Z,95417.38
2022-12-12T14:16:37.735Z,95432.34
2022-12-12T14:19:06.161Z,95426.53
2022-12-12T14:21:40.346Z,95438.38
2022-12-12T14:24:25.691Z,95426.84
2022-12-12T14:26:52.208Z,95431.06
2022-12-12T14:29:18.744Z,95446.25
2022-12-12T14:32:03.757Z,95435.41
2022-12-12T14:34:49.010Z,95442.78
2022-12-12T14:37:21.421Z,95436.53
2022-12-12T14:39:54.861Z,95446.16
2022-12-12T14:43:19.207Z,95448.50
2022-12-12T14:45:23.794Z,95455.84
2022-12-12T14:48:07.933Z,95453.41
2022-12-12T14:50:34.848Z,95453.34
2022-12-12T14:53:02.621Z,95452.72
2022-12-12T14:55:29.225Z,95459.81
2022-12-12T14:57:55.775Z,95455.88
2022-12-12T15:00:22.315Z,95451.00
2022-12-12T15:02:51.079Z,95453.81
2022-12-12T15:05:17.671Z,95461.44
2022-12-12T15:07:44.440Z,95462.88
2022-12-12T15:10:37.727Z,95454.69
2022-12-12T15:13:14.867Z,95464.84
2022-12-12T15:15:42.644Z,95464.47
2022-12-12T15:18:09.903Z,95465.19
2022-12-12T15:20:36.603Z,95470.69
2022-12-12T15:23:04.444Z,95479.19
2022-12-12T15:25:33.141Z,95478.66
2022-12-12T15:28:00.606Z,95477.66
2022-12-12T15:30:30.198Z,95481.22
2022-12-12T15:32:57.845Z,95482.25
2022-12-12T15:35:24.603Z,95490.50
2022-12-12T15:37:55.784Z,95485.84
2022-12-12T15:40:26.553Z,95487.28
2022-12-12T15:42:54.400Z,95486.66
2022-12-12T15:45:29.826Z,95483.97
2022-12-12T15:47:56.697Z,95481.66
2022-12-12T15:50:43.504Z,95484.72
2022-12-12T15:53:22.303Z,95482.28
2022-12-12T15:56:03.920Z,95481.78
2022-12-12T15:58:32.220Z,95488.13
2022-12-12T16:01:08.062Z,95486.66
2022-12-12T16:03:59.165Z,95487.81
2022-12-12T16:06:28.415Z,95492.09
2022-12-12T16:09:01.162Z,95492.31
2022-12-12T16:11:31.857Z,95493.75
2022-12-12T16:14:00.485Z,95500.63
2022-12-12T16:16:36.094Z,95504.28
2022-12-12T16:19:03.415Z,95505.22
2022-12-12T16:21:30.628Z,95503.84
2022-12-12T16:24:19.795Z,95508.34
2022-12-12T16:26:46.323Z,95505.63
2022-12-12T16:29:12.821Z,95508.97
2022-12-12T16:31:39.398Z,95513.75
2022-12-12T16:34:06.065Z,95509.56
2022-12-12T16:36:36.992Z,95512.78
2022-12-12T16:39:09.196Z,95502.47
2022-12-12T16:41:35.837Z,95503.69
2022-12-12T16:44:02.306Z,95506.59
2022-12-12T16:46:28.852Z,95511.34
2022-12-12T16:48:57.311Z,95513.47
2022-12-12T16:51:27.044Z,95512.09
2022-12-12T16:53:53.579Z,95512.00
2022-12-12T16:56:20.232Z,95512.22
2022-12-12T16:58:46.755Z,95519.47
2022-12-12T17:01:15.504Z,95509.72
2022-12-12T17:03:42.243Z,95504.84
2022-12-12T17:06:08.963Z,95509.19
2022-12-12T17:08:35.495Z,95506.06
2022-12-12T17:11:09.637Z,95512.78
2022-12-12T17:13:37.884Z,95514.66
2022-12-12T17:16:04.570Z,95525.06
2022-12-12T17:18:31.083Z,95527.31
2022-12-12T17:20:57.597Z,95540.00
2022-12-12T17:23:30.275Z,95548.94
2022-12-12T17:26:03.550Z,95545.59
2022-12-12T17:28:32.195Z,95539.16
2022-12-12T17:30:58.811Z,95541.63
2022-12-12T17:33:25.680Z,95549.59
2022-12-12T17:36:02.846Z,95541.16
2022-12-12T17:38:30.974Z,95545.06
2022-12-12T17:40:58.025Z,95541.91
2022-12-12T17:43:25.100Z,95546.38
2022-12-12T17:46:01.763Z,95544.53
2022-12-12T17:48:32.515Z,95551.44
2022-12-12T17:51:00.490Z,95548.63
2022-12-12T17:53:27.710Z,95554.84
2022-12-12T17:56:01.788Z,95551.50
2022-12-12T17:58:36.040Z,95556.78
2022-12-12T18:01:09.608Z,95564.69
2022-12-12T18:03:37.257Z,95559.69
2022-12-12T18:06:03.829Z,95562.53
2022-12-12T18:08:30.445Z,95562.75
2022-12-12T18:10:57.114Z,95565.53
2022-12-12T18:13:23.735Z,95562.66
2022-12-12T18:15:56.650Z,95567.38
2022-12-12T18:18:24.186Z,95562.53
2022-12-12T18:20:50.780Z,95569.69
2022-12-12T18:23:17.295Z,95574.53
2022-12-12T18:25:43.807Z,95570.53
2022-12-12T18:28:12.423Z,95581.28
2022-12-12T18:30:40.274Z,95582.19
2022-12-12T18:33:07.940Z,95579.72
2022-12-12T18:35:34.656Z,95579.09
2022-12-12T18:38:01.470Z,95575.72
2022-12-12T18:40:29.243Z,95586.78
2022-12-12T18:42:55.845Z,95596.69
2022-12-12T18:45:24.117Z,95593.72
2022-12-12T18:47:50.594Z,95603.13
2022-12-12T18:50:17.234Z,95602.38
2022-12-12T18:52:43.792Z,95599.63
2022-12-12T18:55:10.315Z,95595.06
2022-12-12T18:57:36.828Z,95595.94
2022-12-12T19:00:06.685Z,95598.78
2022-12-12T19:02:37.594Z,95601.66
2022-12-12T19:05:04.952Z,95600.16
2022-12-12T19:07:31.522Z,95614.16
2022-12-12T19:09:58.012Z,95610.06
2022-12-12T19:12:24.497Z,95608.97
2022-12-12T19:17:37.466Z,95628.41
2022-12-12T19:20:04.651Z,95623.13
2022-12-12T19:22:44.786Z,95626.31
2022-12-12T19:25:11.936Z,95627.81
2022-12-12T19:27:38.430Z,95626.63
2022-12-12T19:30:05.480Z,95637.84
2022-12-12T19:32:32.036Z,95637.28
2022-12-12T19:34:59.788Z,95636.94
2022-12-12T19:37:26.376Z,95643.56
2022-12-12T19:39:53.384Z,95652.00
2022-12-12T19:42:20.468Z,95646.91
2022-12-12T19:44:47.059Z,95651.44
2022-12-12T19:47:13.584Z,95661.81
2022-12-12T19:49:40.086Z,95651.06
2022-12-12T19:52:13.663Z,95652.94
2022-12-12T19:54:40.731Z,95664.03
2022-12-12T19:57:07.208Z,95663.75
2022-12-12T19:59:33.779Z,95672.63
2022-12-12T20:02:01.075Z,95673.22
2022-12-12T20:04:30.136Z,95675.50
2022-12-12T20:06:56.809Z,95671.66
2022-12-12T20:09:24.584Z,95678.34
2022-12-12T20:11:51.231Z,95691.16
2022-12-12T20:14:19.076Z,95693.59
2022-12-12T20:16:46.039Z,95691.94
2022-12-12T20:19:13.781Z,95702.31
2022-12-12T20:22:00.385Z,95693.66
2022-12-12T20:24:29.105Z,95702.25
2022-12-12T20:26:56.070Z,95699.91
2022-12-12T20:29:22.609Z,95699.84
2022-12-12T20:31:49.852Z,95701.44
2022-12-12T20:34:17.319Z,95697.00
2022-12-12T20:36:44.395Z,95696.75
2022-12-12T20:39:12.495Z,95699.59
2022-12-12T20:41:39.734Z,95694.72
2022-12-12T20:44:07.414Z,95694.72
2022-12-12T20:46:38.247Z,95695.78
2022-12-12T20:49:06.732Z,95693.34
2022-12-12T20:54:22.336Z,95696.81
2022-12-12T20:56:49.349Z,95695.22
2022-12-12T20:59:15.880Z,95701.53
2022-12-12T21:01:42.495Z,95701.53
2022-12-12T21:04:09.574Z,95713.50
2022-12-12T21:06:40.519Z,95723.81
2022-12-12T21:09:08.266Z,95720.53
2022-12-12T21:11:35.210Z,95721.44
2022-12-12T21:14:01.959Z,95720.53
2022-12-12T21:16:31.038Z,95714.72
2022-12-12T21:18:59.218Z,95721.91
2022-12-12T21:21:25.934Z,95730.66
2022-12-12T21:23:52.560Z,95725.41
2022-12-12T21:26:25.231Z,95720.91
2022-12-12T21:28:55.268Z,95726.94
2022-12-12T21:31:23.909Z,95719.19
2022-12-12T21:33:50.462Z,95725.19
2022-12-12T21:36:18.808Z,95722.59
2022-12-12T21:38:45.313Z,95719.22
2022-12-12T21:41:13.078Z,95721.00
2022-12-12T21:43:39.592Z,95728.06
2022-12-12T21:46:15.776Z,95723.84
2022-12-12T21:48:42.310Z,95720.72
2022-12-12T21:51:11.082Z,95720.84
2022-12-12T21:53:38.127Z,95715.66
2022-12-12T21:56:05.485Z,95724.22
2022-12-12T21:58:32.226Z,95727.88
2022-12-12T22:01:09.260Z,95729.56
2022-12-12T22:03:36.078Z,95731.38
2022-12-12T22:06:09.387Z,95734.75
2022-12-12T22:08:35.888Z,95732.28
2022-12-12T22:11:02.461Z,95727.25
2022-12-12T22:13:29.036Z,95737.09
2022-12-12T22:15:59.862Z,95737.16
2022-12-12T22:18:26.469Z,95739.91
2022-12-12T22:20:53.193Z,95742.50
2022-12-12T22:23:20.544Z,95743.50
2022-12-12T22:25:47.529Z,95738.97
2022-12-12T22:28:14.142Z,95740.81
2022-12-12T22:30:42.028Z,95740.81
2022-12-12T22:33:08.524Z,95745.84
2022-12-12T22:35:35.045Z,95755.38
2022-12-12T22:38:01.511Z,95753.69
2022-12-12T22:40:28.107Z,95750.19
2022-12-12T22:42:54.620Z,95750.28
2022-12-12T22:45:21.153Z,95748.69
2022-12-12T22:47:47.650Z,95752.34
2022-12-12T22:50:14.137Z,95750.72
2022-12-12T22:52:40.593Z,95758.41
2022-12-12T22:55:07.234Z,95753.41
2022-12-12T22:57:34.476Z,95760.19
2022-12-12T23:00:01.187Z,95748.41
2022-12-12T23:02:27.668Z,95754.38
2022-12-12T23:04:54.326Z,95757.78
2022-12-12T23:07:20.864Z,95756.97
2022-12-12T23:09:52.586Z,95756.34
2022-12-12T23:12:22.941Z,95763.34
2022-12-12T23:14:49.492Z,95759.91
2022-12-12T23:17:16.361Z,95753.22
2022-12-12T23:19:42.863Z,95758.63
2022-12-12T23:22:09.381Z,95762.13
2022-12-12T23:24:35.896Z,95758.81
2022-12-12T23:27:02.502Z,95762.31
2022-12-12T23:29:29.005Z,95758.97
2022-12-12T23:31:55.640Z,95768.47
2022-12-12T23:34:23.348Z,95758.13
2022-12-12T23:36:50.808Z,95758.97
2022-12-12T23:39:17.412Z,95765.78
2022-12-12T23:41:44.193Z,95765.84
2022-12-12T23:44:12.941Z,95760.78
2022-12-12T23:46:39.526Z,95759.13
2022-12-12T23:49:06.130Z,95752.44
2022-12-12T23:51:34.394Z,95761.28
2022-12-12T23:54:02.033Z,95762.28
2022-12-12T23:56:28.585Z,95756.19
2022-12-12T23:58:58.459Z,95758.94
